Bookmark and Share
Track history (hours):
 

Norbank

Operator: P & O Ferries

Last reported at 2014-Apr-23 08:23 UTC. Time now 2014-Apr-23 09:20 UTC.
Position N 53°27' W 003°01'.

Length 167 m; draft 5.8 m.

Type: Ship (hazmat cat A). MMSI: 246213000.

NotesDate/timePositionNaut miles runAvg speedWind from/ knotsBaromVisibWave heightAir tempDewpointWater temp
2014-Apr-23 08:23N 53°27' W 003°01'0 0.0
2014-Apr-23 07:29N 53°27' W 003°01'0 0.0
2014-Apr-23 06:22N 53°27' W 003°01'0 0.0
2014-Apr-23 05:28N 53°27' W 003°01'0 0.5
2014-Apr-23 04:33N 53°27' W 003°01'7 6.7
2014-Apr-23 03:34N 53°32' W 003°09'1717.0
2014-Apr-23 02:33N 53°31' W 003°38'1716.9
2014-Apr-23 01:33N 53°34' W 004°06'7714.3
2014-Apr-22 20:11N 53°21' W 006°13'0 0.0
2014-Apr-22 19:29N 53°21' W 006°13'0 0.0
2014-Apr-22 18:28N 53°21' W 006°13'0 0.0
2014-Apr-22 17:28N 53°21' W 006°13'0 0.0
2014-Apr-22 16:34N 53°21' W 006°13'8015.9
2014-Apr-22 11:33N 53°34' W 004°01'1717.3
2014-Apr-22 10:33N 53°34' W 003°32'1716.6
2014-Apr-22 09:33N 53°30' W 003°05'3 3.3
2014-Apr-22 08:33N 53°27' W 003°01'0 0.2
2014-Apr-22 07:30N 53°27' W 003°01'0 0.0
2014-Apr-22 06:30N 53°27' W 003°01'0 0.0
2014-Apr-22 05:29N 53°27' W 003°01'0 0.5
2014-Apr-22 04:34N 53°27' W 003°01'1110.9
2014-Apr-22 03:33N 53°31' W 003°18'1515.3
2014-Apr-22 02:33N 53°31' W 003°44'1515.0
2014-Apr-22 01:34N 53°34' W 004°09'7013.9
2014-Apr-21 20:29N 53°20' W 006°04'5 5.7
2014-Apr-21 19:32N 53°21' W 006°13'0 0.0
2014-Apr-21 18:26N 53°21' W 006°13'0 0.0
2014-Apr-21 17:25N 53°21' W 006°13'0 0.0
2014-Apr-21 16:31N 53°21' W 006°13'0 0.0
2014-Apr-21 15:31N 53°21' W 006°13'0 0.0
2014-Apr-21 14:30N 53°21' W 006°13'0 0.0
2014-Apr-21 13:30N 53°21' W 006°13'0 0.0
2014-Apr-21 12:23N 53°21' W 006°13'0 0.0
2014-Apr-21 11:29N 53°21' W 006°13'0 0.0
2014-Apr-21 10:28N 53°21' W 006°13'0 0.0
2014-Apr-21 09:28N 53°21' W 006°13'0 0.0
2014-Apr-21 08:27N 53°21' W 006°13'0 0.0
2014-Apr-21 07:33N 53°21' W 006°13'0 0.0
2014-Apr-21 06:33N 53°21' W 006°13'0 0.0
2014-Apr-21 05:20N 53°21' W 006°13'4 4.5
2014-Apr-21 04:21N 53°20' W 006°06'7913.5
2014-Apr-20 22:31N 53°33' W 003°56'1515.9
2014-Apr-20 21:33N 53°33' W 003°30'1615.2
2014-Apr-20 20:29N 53°28' W 003°04'2 0.1
2014-Apr-20 05:17N 53°27' W 003°01'11 5.7
2014-Apr-20 03:23N 53°31' W 003°18'1214.1
2014-Apr-20 02:31N 53°31' W 003°38'2016.1
2014-Apr-20 01:18N 53°34' W 004°11'6315.6
2014-Apr-19 21:15N 53°22' W 005°55'63 7.1
2014-Apr-19 12:19N 53°34' W 004°11'1317.7
2014-Apr-19 11:33N 53°34' W 003°48'1817.6
2014-Apr-19 10:34N 53°32' W 003°19'11 1.8
2014-Apr-19 04:13N 53°27' W 003°01'1 1.3
2014-Apr-19 03:17N 53°28' W 003°03'1114.5
2014-Apr-19 02:33N 53°31' W 003°20'1616.2
2014-Apr-19 01:34N 53°31' W 003°47'1616.2
2014-Apr-19 00:33N 53°34' W 004°14'1817.7
2014-Apr-18 23:33N 53°35' W 004°44'2019.0
2014-Apr-18 22:31N 53°30' W 005°16'1919.5
2014-Apr-18 21:33N 53°24' W 005°46'1714.1
2014-Apr-18 20:22N 53°21' W 006°13'0 0.0
2014-Apr-18 19:28N 53°21' W 006°13'0 0.0
2014-Apr-18 18:33N 53°21' W 006°13'0 0.0
2014-Apr-18 17:33N 53°21' W 006°13'0 0.0
2014-Apr-18 16:32N 53°21' W 006°13'8517.0
2014-Apr-18 11:32N 53°34' W 003°52'1717.9
2014-Apr-18 10:33N 53°32' W 003°23'14 4.5
2014-Apr-18 07:29N 53°27' W 003°01'0 0.0
2014-Apr-18 06:29N 53°27' W 003°01'0 0.0
2014-Apr-18 05:32N 53°27' W 003°01'0 0.1
2014-Apr-18 04:12N 53°27' W 003°01'0 0.7
2014-Apr-18 03:32N 53°27' W 003°01'1312.6
2014-Apr-18 02:33N 53°31' W 003°21'1515.4
2014-Apr-18 01:33N 53°32' W 003°46'8316.6
2014-Apr-17 20:33N 53°20' W 006°04'6 5.2
2014-Apr-17 19:30N 53°21' W 006°13'0 0.0
2014-Apr-17 18:29N 53°21' W 006°13'0 0.0
2014-Apr-17 17:29N 53°21' W 006°13'0 0.1
2014-Apr-17 16:19N 53°21' W 006°13'8818.5
2014-Apr-17 11:33N 53°33' W 003°46'1919.0
2014-Apr-17 10:33N 53°31' W 003°15'9 9.1
2014-Apr-17 09:32N 53°27' W 003°01'0 0.2
2014-Apr-17 07:33N 53°27' W 003°01'0 0.0
2014-Apr-17 06:32N 53°27' W 003°01'0 0.0
2014-Apr-17 05:32N 53°27' W 003°01'0 0.0
2014-Apr-17 04:31N 53°27' W 003°01'1 0.6
2014-Apr-17 03:33N 53°27' W 003°01'1211.7
2014-Apr-17 02:33N 53°31' W 003°19'1818.0
2014-Apr-17 01:33N 53°32' W 003°49'2015.5
2014-Apr-17 00:14N 53°35' W 004°23'67 8.5
2014-Apr-16 16:21N 53°21' W 006°13'7216.9
2014-Apr-16 12:07N 53°34' W 004°15'1119.1
2014-Apr-16 11:33N 53°34' W 003°57'1918.6
2014-Apr-16 10:33N 53°33' W 003°25'1615.6
2014-Apr-16 09:33N 53°27' W 003°01'1 0.6
2014-Apr-16 08:22N 53°27' W 003°01'0 0.0
2014-Apr-16 07:28N 53°27' W 003°01'0 0.0
2014-Apr-16 06:28N 53°27' W 003°01'0 0.0
2014-Apr-16 05:30N 53°27' W 003°01'0 0.0
2014-Apr-16 04:33N 53°27' W 003°01'1 0.6
2014-Apr-16 03:33N 53°27' W 003°01'1211.8
2014-Apr-16 02:33N 53°31' W 003°19'1717.4
2014-Apr-16 01:33N 53°32' W 003°48'1817.7
2014-Apr-16 00:33N 53°36' W 004°17'20 1.3
2014-Apr-15 09:33N 53°34' W 003°44'1716.8
2014-Apr-15 08:34N 53°32' W 003°16'1010.1
2014-Apr-15 07:34N 53°27' W 003°01'0 0.4
2014-Apr-15 06:34N 53°27' W 003°01'0 0.0
2014-Apr-15 05:30N 53°27' W 003°01'0 0.0
2014-Apr-15 03:29N 53°27' W 003°01'1 0.6
2014-Apr-15 02:34N 53°27' W 003°02'1010.1
2014-Apr-15 01:34N 53°31' W 003°17'1817.5
2014-Apr-15 00:33N 53°31' W 003°47'8814.7
2014-Apr-14 18:34N 53°21' W 006°13'0 0.0
2014-Apr-14 17:33N 53°21' W 006°13'0 0.0
2014-Apr-14 16:33N 53°21' W 006°13'0 0.0
2014-Apr-14 15:32N 53°21' W 006°13'0 0.0
2014-Apr-14 14:32N 53°21' W 006°13'0 0.0
2014-Apr-14 13:32N 53°21' W 006°13'0 0.0
2014-Apr-14 10:30N 53°21' W 006°13'0 0.0
2014-Apr-14 08:29N 53°21' W 006°13'11211.3
2014-Apr-13 22:33N 53°31' W 003°06'4 4.3
2014-Apr-13 21:33N 53°27' W 003°01'0 0.0
2014-Apr-13 20:33N 53°27' W 003°01'0 0.0
2014-Apr-13 19:30N 53°27' W 003°01'0 0.0
2014-Apr-13 18:29N 53°27' W 003°01'0 0.0
2014-Apr-13 17:29N 53°27' W 003°01'0 0.0
2014-Apr-13 16:29N 53°27' W 003°01'0 0.0
2014-Apr-13 15:28N 53°27' W 003°01'0 0.0
2014-Apr-13 14:28N 53°27' W 003°01'0 0.0
2014-Apr-13 13:33N 53°27' W 003°01'0 0.0
2014-Apr-13 12:33N 53°27' W 003°01'0 0.0
2014-Apr-13 11:26N 53°27' W 003°01'0 0.0
2014-Apr-13 10:26N 53°27' W 003°01'0 0.0
2014-Apr-13 09:25N 53°27' W 003°01'  

Dump ship's entire track history

sailing weather and tide predictions

Norbank — PGIS — position and weather